Pagrindinis puslapis
METAR-TAF:

METAR-TAF

Oro uostai :

Keene, Naujasis Hampšyras, Jungtinės Amerikos Valstijos

platuma: 42-54N, ilguma: 072-16W, Aukštis: 149 m

Dabartinis oras

Ataskaita buvo paskelbta 22 minutes, ne 06:56 UTC
Vėjas 10 kt iš Pietvakarių su gūsio iki 18 kt
Temperatūra -4°C
Drėgmė 58%
Slėgis 1004 hPa
Matomumas: 16.1 km
Apsiniaukę ne aukštis 5000 ft

METAR: KEEN 280656Z AUTO 23010G18KT 10SM OVC050 M04/M11 A2964 RMK AO2 SLP047 T10391111 FZRANO $

Laikas: 02:18 (07:18 UTC)


TAF: trūkstamas

Orai ataskaitas ir orų prognozės (METAR, TAF).

turimą stotys yra geltonos ir raudonos taškus žemėlapyje.

Perkelti pele per norėdami pamatyti stoties vardą.

Tada spustelėkite, norėdami matyti oro stebėjimo ir prognozės.

Norėdami pakeisti žemėlapį: spustelėkite ant žalios mygtukų su juodo kryžiaus žemyn,; žalią mygtuką su brūkšneliu, jei norite nutolinti; arba žalių rodyklių gretimoms žemėlapius.


METAR-TAF: